sensor_id;sensor_type;location;lat;lon;timestamp;pressure;altitude;pressure_sealevel;temperature;humidity
12636;BME280;6383;50.830;7.210;2023-05-21T00:01:54;100871.66;;;17.77;62.88
12636;BME280;6383;50.830;7.210;2023-05-21T00:04:22;100865.69;;;17.75;63.81
12636;BME280;6383;50.830;7.210;2023-05-21T00:06:51;100866.84;;;17.74;63.94
12636;BME280;6383;50.830;7.210;2023-05-21T00:09:20;100872.22;;;17.71;63.25
12636;BME280;6383;50.830;7.210;2023-05-21T00:11:49;100864.75;;;17.71;63.31
12636;BME280;6383;50.830;7.210;2023-05-21T00:14:18;100860.25;;;17.67;63.69
12636;BME280;6383;50.830;7.210;2023-05-21T00:16:46;100862.56;;;17.65;64.25
12636;BME280;6383;50.830;7.210;2023-05-21T00:19:16;100856.91;;;17.61;64.12
12636;BME280;6383;50.830;7.210;2023-05-21T00:21:44;100846.91;;;17.56;64.33
12636;BME280;6383;50.830;7.210;2023-05-21T00:24:14;100845.97;;;17.52;64.47
12636;BME280;6383;50.830;7.210;2023-05-21T00:26:43;100842.31;;;17.48;64.72
12636;BME280;6383;50.830;7.210;2023-05-21T00:29:12;100841.50;;;17.48;64.90
12636;BME280;6383;50.830;7.210;2023-05-21T00:31:41;100836.00;;;17.48;64.64
12636;BME280;6383;50.830;7.210;2023-05-21T00:34:09;100826.47;;;17.45;64.91
12636;BME280;6383;50.830;7.210;2023-05-21T00:36:36;100825.53;;;17.41;64.88
12636;BME280;6383;50.830;7.210;2023-05-21T00:39:07;100828.88;;;17.35;64.56
12636;BME280;6383;50.830;7.210;2023-05-21T00:41:37;100832.69;;;17.21;64.96
12636;BME280;6383;50.830;7.210;2023-05-21T00:44:06;100834.06;;;17.15;65.73
12636;BME280;6383;50.830;7.210;2023-05-21T00:46:35;100837.81;;;17.11;66.13
12636;BME280;6383;50.830;7.210;2023-05-21T00:49:03;100823.25;;;17.10;65.89
12636;BME280;6383;50.830;7.210;2023-05-21T00:51:33;100827.16;;;17.09;66.07
12636;BME280;6383;50.830;7.210;2023-05-21T00:54:02;100827.16;;;17.09;66.00
12636;BME280;6383;50.830;7.210;2023-05-21T00:56:31;100825.22;;;17.10;66.20
12636;BME280;6383;50.830;7.210;2023-05-21T00:59:02;100823.13;;;17.07;66.02
12636;BME280;6383;50.830;7.210;2023-05-21T01:01:32;100826.56;;;17.04;66.46
12636;BME280;6383;50.830;7.210;2023-05-21T01:04:03;100826.09;;;17.02;66.61
12636;BME280;6383;50.830;7.210;2023-05-21T01:06:31;100829.31;;;17.04;66.48
12636;BME280;6383;50.830;7.210;2023-05-21T01:09:02;100828.84;;;17.02;66.18
12636;BME280;6383;50.830;7.210;2023-05-21T01:11:37;100821.28;;;16.99;65.92
12636;BME280;6383;50.830;7.210;2023-05-21T01:14:09;100820.47;;;16.98;66.54
12636;BME280;6383;50.830;7.210;2023-05-21T01:16:42;100820.94;;;17.00;66.15
12636;BME280;6383;50.830;7.210;2023-05-21T01:19:15;100820.94;;;17.00;65.79
12636;BME280;6383;50.830;7.210;2023-05-21T01:21:46;100817.38;;;17.00;65.85
12636;BME280;6383;50.830;7.210;2023-05-21T01:24:17;100812.22;;;16.98;65.72
12636;BME280;6383;50.830;7.210;2023-05-21T01:26:47;100816.09;;;16.97;65.82
12636;BME280;6383;50.830;7.210;2023-05-21T01:29:15;100822.59;;;16.92;66.45
12636;BME280;6383;50.830;7.210;2023-05-21T01:31:51;100808.75;;;16.89;66.37
12636;BME280;6383;50.830;7.210;2023-05-21T01:34:27;100810.81;;;16.92;66.24
12636;BME280;6383;50.830;7.210;2023-05-21T01:37:02;100808.06;;;16.92;66.35
12636;BME280;6383;50.830;7.210;2023-05-21T01:39:35;100804.53;;;16.91;66.11
12636;BME280;6383;50.830;7.210;2023-05-21T01:42:08;100808.06;;;16.92;66.20
12636;BME280;6383;50.830;7.210;2023-05-21T01:44:36;100811.28;;;16.94;66.09
12636;BME280;6383;50.830;7.210;2023-05-21T01:47:05;100807.28;;;16.91;65.77
12636;BME280;6383;50.830;7.210;2023-05-21T01:49:34;100809.66;;;16.93;66.09
12636;BME280;6383;50.830;7.210;2023-05-21T01:52:04;100810.81;;;16.92;66.50
12636;BME280;6383;50.830;7.210;2023-05-21T01:54:33;100811.50;;;16.89;66.01
12636;BME280;6383;50.830;7.210;2023-05-21T01:57:03;100810.09;;;16.83;66.34
12636;BME280;6383;50.830;7.210;2023-05-21T01:59:32;100809.13;;;16.79;66.80
12636;BME280;6383;50.830;7.210;2023-05-21T02:02:01;100810.28;;;16.78;66.14
12636;BME280;6383;50.830;7.210;2023-05-21T02:04:30;100814.31;;;16.80;66.24
12636;BME280;6383;50.830;7.210;2023-05-21T02:06:58;100804.91;;;16.81;66.27
12636;BME280;6383;50.830;7.210;2023-05-21T02:09:27;100802.16;;;16.81;66.50
12636;BME280;6383;50.830;7.210;2023-05-21T02:11:57;100806.06;;;16.80;66.29
12636;BME280;6383;50.830;7.210;2023-05-21T02:14:26;100805.25;;;16.80;66.66
12636;BME280;6383;50.830;7.210;2023-05-21T02:16:56;100813.97;;;16.82;66.39
12636;BME280;6383;50.830;7.210;2023-05-21T02:19:24;100802.16;;;16.81;66.14
12636;BME280;6383;50.830;7.210;2023-05-21T02:21:53;100797.81;;;16.80;66.28
12636;BME280;6383;50.830;7.210;2023-05-21T02:24:22;100802.16;;;16.81;66.72
12636;BME280;6383;50.830;7.210;2023-05-21T02:26:50;100803.78;;;16.82;67.21
12636;BME280;6383;50.830;7.210;2023-05-21T02:29:21;100801.03;;;16.82;66.69
12636;BME280;6383;50.830;7.210;2023-05-21T02:31:50;100798.75;;;16.84;66.94
12636;BME280;6383;50.830;7.210;2023-05-21T02:34:19;100802.31;;;16.85;67.11
12636;BME280;6383;50.830;7.210;2023-05-21T02:36:47;100790.16;;;16.86;67.44
12636;BME280;6383;50.830;7.210;2023-05-21T02:39:18;100790.50;;;16.84;67.35
12636;BME280;6383;50.830;7.210;2023-05-21T02:41:47;100798.41;;;16.86;67.52
12636;BME280;6383;50.830;7.210;2023-05-21T02:44:16;100794.06;;;16.85;67.68
12636;BME280;6383;50.830;7.210;2023-05-21T02:46:46;100796.47;;;16.86;67.24
12636;BME280;6383;50.830;7.210;2023-05-21T02:49:14;100788.22;;;16.86;67.09
12636;BME280;6383;50.830;7.210;2023-05-21T02:51:42;100784.69;;;16.86;67.18
12636;BME280;6383;50.830;7.210;2023-05-21T02:54:11;100794.19;;;16.88;67.17
12636;BME280;6383;50.830;7.210;2023-05-21T02:56:40;100804.38;;;16.88;67.38
12636;BME280;6383;50.830;7.210;2023-05-21T02:59:09;100792.25;;;16.89;67.28
12636;BME280;6383;50.830;7.210;2023-05-21T03:01:39;100800.16;;;16.90;67.45
12636;BME280;6383;50.830;7.210;2023-05-21T03:04:08;100790.31;;;16.89;67.56
12636;BME280;6383;50.830;7.210;2023-05-21T03:06:37;100785.94;;;16.88;67.85
12636;BME280;6383;50.830;7.210;2023-05-21T03:09:06;100789.50;;;16.89;67.02
12636;BME280;6383;50.830;7.210;2023-05-21T03:11:34;100782.88;;;16.90;67.25
12636;BME280;6383;50.830;7.210;2023-05-21T03:14:02;100787.56;;;16.89;67.50
12636;BME280;6383;50.830;7.210;2023-05-21T03:16:30;100778.50;;;16.89;67.07
12636;BME280;6383;50.830;7.210;2023-05-21T03:18:59;100774.94;;;16.88;67.46
12636;BME280;6383;50.830;7.210;2023-05-21T03:21:31;100770.94;;;16.86;67.42
12636;BME280;6383;50.830;7.210;2023-05-21T03:23:59;100778.03;;;16.87;67.11
12636;BME280;6383;50.830;7.210;2023-05-21T03:26:28;100772.06;;;16.85;67.24
12636;BME280;6383;50.830;7.210;2023-05-21T03:28:57;100766.91;;;16.83;67.36
12636;BME280;6383;50.830;7.210;2023-05-21T03:31:26;100770.00;;;16.82;67.30
12636;BME280;6383;50.830;7.210;2023-05-21T03:33:55;100765.97;;;16.79;68.15
12636;BME280;6383;50.830;7.210;2023-05-21T03:36:24;100765.50;;;16.77;68.49
12636;BME280;6383;50.830;7.210;2023-05-21T03:38:55;100775.72;;;16.77;68.14
12636;BME280;6383;50.830;7.210;2023-05-21T03:41:24;100772.97;;;16.77;68.20
12636;BME280;6383;50.830;7.210;2023-05-21T03:43:53;100773.75;;;16.77;68.53
12636;BME280;6383;50.830;7.210;2023-05-21T03:46:21;100779.22;;;16.77;67.69
12636;BME280;6383;50.830;7.210;2023-05-21T03:48:50;100776.47;;;16.77;67.99
12636;BME280;6383;50.830;7.210;2023-05-21T03:51:19;100774.53;;;16.78;68.00
12636;BME280;6383;50.830;7.210;2023-05-21T03:53:48;100772.59;;;16.78;67.96
12636;BME280;6383;50.830;7.210;2023-05-21T03:56:19;100767.91;;;16.79;68.58
12636;BME280;6383;50.830;7.210;2023-05-21T03:58:48;100765.50;;;16.77;68.34
12636;BME280;6383;50.830;7.210;2023-05-21T04:01:16;100765.16;;;16.79;67.93
12636;BME280;6383;50.830;7.210;2023-05-21T04:03:46;100770.00;;;16.82;67.86
12636;BME280;6383;50.830;7.210;2023-05-21T04:06:15;100769.31;;;16.85;67.95
12636;BME280;6383;50.830;7.210;2023-05-21T04:08:43;100764.16;;;16.83;68.05
12636;BME280;6383;50.830;7.210;2023-05-21T04:11:11;100757.03;;;16.82;67.64
12636;BME280;6383;50.830;7.210;2023-05-21T04:13:42;100763.00;;;16.84;67.51
12636;BME280;6383;50.830;7.210;2023-05-21T04:16:10;100770.47;;;16.84;67.76
12636;BME280;6383;50.830;7.210;2023-05-21T04:18:39;100766.91;;;16.83;67.95
12636;BME280;6383;50.830;7.210;2023-05-21T04:21:09;100760.59;;;16.83;67.65
12636;BME280;6383;50.830;7.210;2023-05-21T04:23:38;100765.44;;;16.86;67.80
12636;BME280;6383;50.830;7.210;2023-05-21T04:26:07;100769.31;;;16.85;67.85
12636;BME280;6383;50.830;7.210;2023-05-21T04:28:35;100770.47;;;16.84;67.74
12636;BME280;6383;50.830;7.210;2023-05-21T04:31:05;100765.44;;;16.86;68.22
12636;BME280;6383;50.830;7.210;2023-05-21T04:33:34;100770.94;;;16.86;67.47
12636;BME280;6383;50.830;7.210;2023-05-21T04:36:03;100773.69;;;16.86;67.85
12636;BME280;6383;50.830;7.210;2023-05-21T04:38:30;100779.66;;;16.88;67.08
12636;BME280;6383;50.830;7.210;2023-05-21T04:41:00;100776.75;;;16.84;67.63
12636;BME280;6383;50.830;7.210;2023-05-21T04:43:30;100786.63;;;16.85;67.93
12636;BME280;6383;50.830;7.210;2023-05-21T04:45:59;100786.63;;;16.85;68.11
12636;BME280;6383;50.830;7.210;2023-05-21T04:48:30;100784.34;;;16.87;67.95
12636;BME280;6383;50.830;7.210;2023-05-21T04:50:59;100790.97;;;16.86;67.83
12636;BME280;6383;50.830;7.210;2023-05-21T04:53:28;100790.97;;;16.86;67.54
12636;BME280;6383;50.830;7.210;2023-05-21T04:55:57;100795.34;;;16.87;67.60
12636;BME280;6383;50.830;7.210;2023-05-21T04:58:27;100789.03;;;16.87;67.39
12636;BME280;6383;50.830;7.210;2023-05-21T05:00:56;100789.84;;;16.87;67.88
12636;BME280;6383;50.830;7.210;2023-05-21T05:03:30;100787.09;;;16.87;67.54
12636;BME280;6383;50.830;7.210;2023-05-21T05:05:58;100788.69;;;16.88;67.59
12636;BME280;6383;50.830;7.210;2023-05-21T05:08:26;100786.75;;;16.89;68.39
12636;BME280;6383;50.830;7.210;2023-05-21T05:10:55;100784.34;;;16.87;68.10
12636;BME280;6383;50.830;7.210;2023-05-21T05:13:23;100791.44;;;16.88;67.96
12636;BME280;6383;50.830;7.210;2023-05-21T05:15:53;100784.81;;;16.89;67.92
12636;BME280;6383;50.830;7.210;2023-05-21T05:18:22;100780.13;;;16.90;68.40
12636;BME280;6383;50.830;7.210;2023-05-21T05:20:52;100789.97;;;16.91;68.23
12636;BME280;6383;50.830;7.210;2023-05-21T05:23:21;100792.72;;;16.91;69.12
12636;BME280;6383;50.830;7.210;2023-05-21T05:25:50;100788.03;;;16.91;69.45
12636;BME280;6383;50.830;7.210;2023-05-21T05:28:19;100795.47;;;16.91;69.18
12636;BME280;6383;50.830;7.210;2023-05-21T05:30:48;100792.91;;;16.86;68.54
12636;BME280;6383;50.830;7.210;2023-05-21T05:33:17;100791.44;;;16.88;69.31
12636;BME280;6383;50.830;7.210;2023-05-21T05:35:46;100793.41;;;16.88;68.40
12636;BME280;6383;50.830;7.210;2023-05-21T05:38:17;100785.47;;;16.86;68.59
12636;BME280;6383;50.830;7.210;2023-05-21T05:40:46;100779.19;;;16.86;68.31
12636;BME280;6383;50.830;7.210;2023-05-21T05:43:15;100774.47;;;16.86;68.41
12636;BME280;6383;50.830;7.210;2023-05-21T05:45:43;100772.19;;;16.88;68.57
12636;BME280;6383;50.830;7.210;2023-05-21T05:48:11;100777.81;;;16.92;69.23
12636;BME280;6383;50.830;7.210;2023-05-21T05:50:40;100775.88;;;16.92;68.77
12636;BME280;6383;50.830;7.210;2023-05-21T05:53:07;100782.97;;;16.93;69.18
12636;BME280;6383;50.830;7.210;2023-05-21T05:55:41;100773.25;;;16.96;69.13
12636;BME280;6383;50.830;7.210;2023-05-21T05:58:10;100779.34;;;17.02;69.46
12636;BME280;6383;50.830;7.210;2023-05-21T06:00:37;100778.34;;;17.06;69.47
12636;BME280;6383;50.830;7.210;2023-05-21T06:03:06;100779.72;;;17.12;69.86
12636;BME280;6383;50.830;7.210;2023-05-21T06:05:35;100782.28;;;17.17;68.96
12636;BME280;6383;50.830;7.210;2023-05-21T06:08:04;100779.66;;;17.21;68.71
12636;BME280;6383;50.830;7.210;2023-05-21T06:10:34;100784.94;;;17.26;69.12
12636;BME280;6383;50.830;7.210;2023-05-21T06:13:02;100781.16;;;17.31;68.82
12636;BME280;6383;50.830;7.210;2023-05-21T06:15:32;100777.72;;;17.34;68.21
12636;BME280;6383;50.830;7.210;2023-05-21T06:18:01;100787.94;;;17.33;67.98
12636;BME280;6383;50.830;7.210;2023-05-21T06:20:30;100779.22;;;17.31;68.17
12636;BME280;6383;50.830;7.210;2023-05-21T06:22:58;100779.69;;;17.33;68.93
12636;BME280;6383;50.830;7.210;2023-05-21T06:25:27;100790.13;;;17.40;68.77
12636;BME280;6383;50.830;7.210;2023-05-21T06:27:55;100786.34;;;17.44;68.59
12636;BME280;6383;50.830;7.210;2023-05-21T06:30:25;100777.53;;;17.51;68.52
12636;BME280;6383;50.830;7.210;2023-05-21T06:32:54;100770.66;;;17.57;68.44
12636;BME280;6383;50.830;7.210;2023-05-21T06:35:24;100776.75;;;17.62;68.21
12636;BME280;6383;50.830;7.210;2023-05-21T06:37:52;100772.66;;;17.69;67.68
12636;BME280;6383;50.830;7.210;2023-05-21T06:40:21;100770.00;;;17.72;67.09
12636;BME280;6383;50.830;7.210;2023-05-21T06:42:51;100774.84;;;17.75;66.83
12636;BME280;6383;50.830;7.210;2023-05-21T06:45:20;100778.72;;;17.74;66.18
12636;BME280;6383;50.830;7.210;2023-05-21T06:47:53;100781.94;;;17.76;67.14
12636;BME280;6383;50.830;7.210;2023-05-21T06:50:22;100782.88;;;17.80;67.47
12636;BME280;6383;50.830;7.210;2023-05-21T06:52:50;100781.03;;;17.84;67.53
12636;BME280;6383;50.830;7.210;2023-05-21T06:55:20;100784.72;;;17.88;67.13
12636;BME280;6383;50.830;7.210;2023-05-21T06:57:49;100782.53;;;17.94;67.05
12636;BME280;6383;50.830;7.210;2023-05-21T07:00:19;100776.78;;;17.99;66.85
12636;BME280;6383;50.830;7.210;2023-05-21T07:02:48;100782.41;;;18.03;67.24
12636;BME280;6383;50.830;7.210;2023-05-21T07:05:17;100773.91;;;18.08;67.10
12636;BME280;6383;50.830;7.210;2023-05-21T07:07:45;100777.22;;;18.13;67.28
12636;BME280;6383;50.830;7.210;2023-05-21T07:10:15;100779.75;;;18.18;66.61
12636;BME280;6383;50.830;7.210;2023-05-21T07:12:43;100775.50;;;18.21;66.93
12636;BME280;6383;50.830;7.210;2023-05-21T07:15:11;100785.03;;;18.23;66.30
12636;BME280;6383;50.830;7.210;2023-05-21T07:17:39;100787.09;;;18.26;66.49
12636;BME280;6383;50.830;7.210;2023-05-21T07:20:07;100775.38;;;18.29;66.82
12636;BME280;6383;50.830;7.210;2023-05-21T07:22:38;100777.78;;;18.31;66.29
12636;BME280;6383;50.830;7.210;2023-05-21T07:25:06;100769.28;;;18.36;66.26
12636;BME280;6383;50.830;7.210;2023-05-21T07:27:34;100778.91;;;18.42;67.07
12636;BME280;6383;50.830;7.210;2023-05-21T07:30:02;100773.63;;;18.49;66.87
12636;BME280;6383;50.830;7.210;2023-05-21T07:32:30;100771.06;;;18.56;66.23
12636;BME280;6383;50.830;7.210;2023-05-21T07:34:59;100773.97;;;18.60;66.40
12636;BME280;6383;50.830;7.210;2023-05-21T07:37:39;100772.56;;;18.66;66.53
12636;BME280;6383;50.830;7.210;2023-05-21T07:40:09;100777.75;;;18.67;65.87
12636;BME280;6383;50.830;7.210;2023-05-21T07:42:37;100779.88;;;18.74;67.09
12636;BME280;6383;50.830;7.210;2023-05-21T07:45:07;100781.16;;;18.77;66.55
12636;BME280;6383;50.830;7.210;2023-05-21T07:47:35;100778.94;;;18.82;65.64
12636;BME280;6383;50.830;7.210;2023-05-21T07:50:11;100777.41;;;18.85;66.50
12636;BME280;6383;50.830;7.210;2023-05-21T07:52:45;100779.25;;;18.93;66.57
12636;BME280;6383;50.830;7.210;2023-05-21T07:55:15;100783.38;;;18.99;66.93
12636;BME280;6383;50.830;7.210;2023-05-21T07:57:44;100778.03;;;19.06;65.98
12636;BME280;6383;50.830;7.210;2023-05-21T08:00:14;100767.22;;;19.13;65.46
12636;BME280;6383;50.830;7.210;2023-05-21T08:02:46;100775.22;;;19.18;65.46
12636;BME280;6383;50.830;7.210;2023-05-21T08:05:15;100771.50;;;19.26;66.35
12636;BME280;6383;50.830;7.210;2023-05-21T08:07:46;100765.00;;;19.34;65.90
12636;BME280;6383;50.830;7.210;2023-05-21T08:10:20;100764.03;;;19.43;66.22
12636;BME280;6383;50.830;7.210;2023-05-21T08:12:58;100763.53;;;19.53;65.04
12636;BME280;6383;50.830;7.210;2023-05-21T08:15:32;100767.72;;;19.62;65.55
12636;BME280;6383;50.830;7.210;2023-05-21T08:18:05;100767.19;;;19.73;65.74
12636;BME280;6383;50.830;7.210;2023-05-21T08:20:38;100756.31;;;19.80;64.75
12636;BME280;6383;50.830;7.210;2023-05-21T08:23:08;100764.69;;;19.83;63.32
12636;BME280;6383;50.830;7.210;2023-05-21T08:25:38;100761.66;;;19.88;63.56
12636;BME280;6383;50.830;7.210;2023-05-21T08:28:10;100754.25;;;19.92;63.69
12636;BME280;6383;50.830;7.210;2023-05-21T08:30:45;100761.09;;;19.98;63.06
12636;BME280;6383;50.830;7.210;2023-05-21T08:33:14;100757.63;;;20.01;63.03
12636;BME280;6383;50.830;7.210;2023-05-21T08:35:43;100760.44;;;20.05;63.31
12636;BME280;6383;50.830;7.210;2023-05-21T08:38:14;100753.78;;;20.06;63.25
12636;BME280;6383;50.830;7.210;2023-05-21T08:40:45;100754.22;;;20.08;62.85
12636;BME280;6383;50.830;7.210;2023-05-21T08:43:15;100761.00;;;20.11;61.98
12636;BME280;6383;50.830;7.210;2023-05-21T08:45:44;100762.41;;;20.04;61.54
12636;BME280;6383;50.830;7.210;2023-05-21T08:48:15;100762.00;;;20.02;61.96
12636;BME280;6383;50.830;7.210;2023-05-21T08:50:45;100756.03;;;20.00;61.50
12636;BME280;6383;50.830;7.210;2023-05-21T08:53:16;100755.22;;;20.00;61.58
12636;BME280;6383;50.830;7.210;2023-05-21T08:55:45;100759.22;;;20.02;61.59
12636;BME280;6383;50.830;7.210;2023-05-21T08:58:14;100756.53;;;20.06;61.66
12636;BME280;6383;50.830;7.210;2023-05-21T09:00:44;100760.63;;;20.12;62.50
12636;BME280;6383;50.830;7.210;2023-05-21T09:03:13;100752.88;;;20.18;62.85
12636;BME280;6383;50.830;7.210;2023-05-21T09:05:50;100762.91;;;20.26;63.18
12636;BME280;6383;50.830;7.210;2023-05-21T09:08:30;100752.44;;;20.35;62.27
12636;BME280;6383;50.830;7.210;2023-05-21T09:11:06;100756.56;;;20.41;61.58
12636;BME280;6383;50.830;7.210;2023-05-21T09:13:37;100751.19;;;20.48;61.55
12636;BME280;6383;50.830;7.210;2023-05-21T09:16:19;100755.34;;;20.58;62.01
12636;BME280;6383;50.830;7.210;2023-05-21T09:19:02;100753.16;;;20.67;61.14
12636;BME280;6383;50.830;7.210;2023-05-21T09:21:42;100745.81;;;20.74;61.15
12636;BME280;6383;50.830;7.210;2023-05-21T09:27:32;100753.97;;;20.87;59.61
12636;BME280;6383;50.830;7.210;2023-05-21T09:30:17;100750.91;;;20.92;60.22
12636;BME280;6383;50.830;7.210;2023-05-21T09:33:05;100743.47;;;20.96;59.64
12636;BME280;6383;50.830;7.210;2023-05-21T09:35:44;100748.25;;;20.99;59.67
12636;BME280;6383;50.830;7.210;2023-05-21T09:38:21;100738.88;;;21.03;59.14
12636;BME280;6383;50.830;7.210;2023-05-21T09:40:55;100744.16;;;21.12;59.66
12636;BME280;6383;50.830;7.210;2023-05-21T09:43:45;100745.47;;;21.18;60.13
12636;BME280;6383;50.830;7.210;2023-05-21T09:49:05;100737.69;;;21.24;59.87
12636;BME280;6383;50.830;7.210;2023-05-21T09:51:37;100734.19;;;21.27;59.84
12636;BME280;6383;50.830;7.210;2023-05-21T09:54:09;100739.78;;;21.30;59.71
12636;BME280;6383;50.830;7.210;2023-05-21T09:56:40;100725.22;;;21.33;59.02
12636;BME280;6383;50.830;7.210;2023-05-21T09:59:08;100732.03;;;21.39;59.62
12636;BME280;6383;50.830;7.210;2023-05-21T10:01:35;100720.66;;;21.44;59.78
12636;BME280;6383;50.830;7.210;2023-05-21T10:04:06;100714.03;;;21.53;59.44
12636;BME280;6383;50.830;7.210;2023-05-21T10:06:37;100705.44;;;21.58;59.54
12636;BME280;6383;50.830;7.210;2023-05-21T10:09:09;100713.50;;;21.66;59.34
12636;BME280;6383;50.830;7.210;2023-05-21T10:11:43;100706.53;;;21.76;59.76
12636;BME280;6383;50.830;7.210;2023-05-21T10:14:15;100703.84;;;21.83;59.31
12636;BME280;6383;50.830;7.210;2023-05-21T10:16:46;100690.91;;;21.91;59.37
12636;BME280;6383;50.830;7.210;2023-05-21T10:19:15;100694.28;;;22.03;60.41
12636;BME280;6383;50.830;7.210;2023-05-21T10:21:44;100693.63;;;22.13;58.59
12636;BME280;6383;50.830;7.210;2023-05-21T10:24:14;100685.47;;;22.24;58.20
12636;BME280;6383;50.830;7.210;2023-05-21T10:26:45;100681.22;;;22.34;57.62
12636;BME280;6383;50.830;7.210;2023-05-21T10:29:14;100678.94;;;22.43;57.38
12636;BME280;6383;50.830;7.210;2023-05-21T10:31:43;100687.78;;;22.52;57.63
12636;BME280;6383;50.830;7.210;2023-05-21T10:34:15;100683.16;;;22.63;57.48
12636;BME280;6383;50.830;7.210;2023-05-21T10:36:45;100680.88;;;22.72;57.63
12636;BME280;6383;50.830;7.210;2023-05-21T10:39:17;100674.56;;;22.75;56.20
12636;BME280;6383;50.830;7.210;2023-05-21T10:41:55;100675.44;;;22.79;56.32
12636;BME280;6383;50.830;7.210;2023-05-21T10:44:36;100675.13;;;22.84;57.75
12636;BME280;6383;50.830;7.210;2023-05-21T10:47:29;100658.91;;;22.90;57.32
12636;BME280;6383;50.830;7.210;2023-05-21T10:50:47;100664.53;;;22.97;56.61
12636;BME280;6383;50.830;7.210;2023-05-21T10:53:24;100657.47;;;23.07;56.07
12636;BME280;6383;50.830;7.210;2023-05-21T10:56:07;100656.38;;;23.15;55.77
12636;BME280;6383;50.830;7.210;2023-05-21T10:59:03;100654.06;;;23.24;54.11
12636;BME280;6383;50.830;7.210;2023-05-21T11:01:36;100648.56;;;23.31;54.26
12636;BME280;6383;50.830;7.210;2023-05-21T11:04:05;100644.22;;;23.34;54.63
12636;BME280;6383;50.830;7.210;2023-05-21T11:06:35;100643.47;;;23.40;54.93
12636;BME280;6383;50.830;7.210;2023-05-21T11:09:10;100643.91;;;23.42;54.57
12636;BME280;6383;50.830;7.210;2023-05-21T11:11:39;100639.56;;;23.48;54.07
12636;BME280;6383;50.830;7.210;2023-05-21T11:14:26;100629.72;;;23.54;54.32
12636;BME280;6383;50.830;7.210;2023-05-21T11:17:01;100632.94;;;23.64;55.06
12636;BME280;6383;50.830;7.210;2023-05-21T11:19:35;100631.44;;;23.73;54.35
12636;BME280;6383;50.830;7.210;2023-05-21T11:22:05;100629.13;;;23.86;54.48
12636;BME280;6383;50.830;7.210;2023-05-21T11:24:39;100629.13;;;23.86;54.48
12636;BME280;6383;50.830;7.210;2023-05-21T11:27:07;100625.63;;;24.07;54.51
12636;BME280;6383;50.830;7.210;2023-05-21T11:29:42;100615.75;;;24.13;53.54
12636;BME280;6383;50.830;7.210;2023-05-21T11:32:12;100627.31;;;24.18;53.50
12636;BME280;6383;50.830;7.210;2023-05-21T11:34:44;100622.94;;;24.17;52.71
12636;BME280;6383;50.830;7.210;2023-05-21T11:37:37;100622.91;;;24.21;52.63
12636;BME280;6383;50.830;7.210;2023-05-21T11:40:21;100624.94;;;24.24;53.51
12636;BME280;6383;50.830;7.210;2023-05-21T11:42:53;100615.03;;;24.27;52.49
12636;BME280;6383;50.830;7.210;2023-05-21T11:45:27;100619.41;;;24.28;52.16
12636;BME280;6383;50.830;7.210;2023-05-21T11:47:57;100612.69;;;24.32;52.13
12636;BME280;6383;50.830;7.210;2023-05-21T11:50:26;100617.84;;;24.34;51.10
12636;BME280;6383;50.830;7.210;2023-05-21T11:52:56;100613.88;;;24.38;51.20
12636;BME280;6383;50.830;7.210;2023-05-21T11:55:26;100615.09;;;24.44;51.45
12636;BME280;6383;50.830;7.210;2023-05-21T11:57:53;100609.91;;;24.50;52.69
12636;BME280;6383;50.830;7.210;2023-05-21T12:00:21;100609.97;;;24.57;53.30
12636;BME280;6383;50.830;7.210;2023-05-21T12:02:52;100611.94;;;24.64;51.99
12636;BME280;6383;50.830;7.210;2023-05-21T12:05:21;100610.75;;;24.68;52.07
12636;BME280;6383;50.830;7.210;2023-05-21T12:07:50;100604.81;;;24.73;51.92
12636;BME280;6383;50.830;7.210;2023-05-21T12:10:21;100607.63;;;24.77;51.78
12636;BME280;6383;50.830;7.210;2023-05-21T12:12:51;100602.84;;;24.77;51.11
12636;BME280;6383;50.830;7.210;2023-05-21T12:15:20;100594.47;;;24.81;50.45
12636;BME280;6383;50.830;7.210;2023-05-21T12:17:49;100607.19;;;24.82;51.19
12636;BME280;6383;50.830;7.210;2023-05-21T12:20:19;100593.69;;;24.80;50.54
12636;BME280;6383;50.830;7.210;2023-05-21T12:22:49;100588.09;;;24.80;50.63
12636;BME280;6383;50.830;7.210;2023-05-21T12:25:19;100592.09;;;24.83;50.93
12636;BME280;6383;50.830;7.210;2023-05-21T12:27:48;100586.13;;;24.84;51.65
12636;BME280;6383;50.830;7.210;2023-05-21T12:30:19;100586.13;;;24.88;51.75
12636;BME280;6383;50.830;7.210;2023-05-21T12:32:48;100581.38;;;24.92;52.85
12636;BME280;6383;50.830;7.210;2023-05-21T12:35:22;100590.16;;;25.01;52.23
12636;BME280;6383;50.830;7.210;2023-05-21T12:37:51;100593.34;;;25.03;51.24
12636;BME280;6383;50.830;7.210;2023-05-21T12:40:19;100586.59;;;25.08;51.57
12636;BME280;6383;50.830;7.210;2023-05-21T12:42:49;100588.94;;;25.09;50.12
12636;BME280;6383;50.830;7.210;2023-05-21T12:45:18;100586.16;;;25.09;51.39
12636;BME280;6383;50.830;7.210;2023-05-21T12:47:49;100580.19;;;25.11;51.01
12636;BME280;6383;50.830;7.210;2023-05-21T12:50:22;100580.59;;;25.13;50.93
12636;BME280;6383;50.830;7.210;2023-05-21T12:52:55;100579.00;;;25.19;51.20
12636;BME280;6383;50.830;7.210;2023-05-21T12:55:25;100576.19;;;25.26;51.93
12636;BME280;6383;50.830;7.210;2023-05-21T12:58:01;100574.22;;;25.30;51.47
12636;BME280;6383;50.830;7.210;2023-05-21T13:00:31;100579.41;;;25.35;51.57
12636;BME280;6383;50.830;7.210;2023-05-21T13:02:59;100567.81;;;25.40;50.85
12636;BME280;6383;50.830;7.210;2023-05-21T13:05:31;100573.41;;;25.47;50.68
12636;BME280;6383;50.830;7.210;2023-05-21T13:08:00;100573.38;;;25.54;50.29
12636;BME280;6383;50.830;7.210;2023-05-21T13:10:28;100568.22;;;25.63;50.41
12636;BME280;6383;50.830;7.210;2023-05-21T13:12:57;100565.00;;;25.69;50.43
12636;BME280;6383;50.830;7.210;2023-05-21T13:15:26;100556.63;;;25.76;50.86
12636;BME280;6383;50.830;7.210;2023-05-21T13:17:56;100555.78;;;25.82;50.99
12636;BME280;6383;50.830;7.210;2023-05-21T13:20:24;100545.00;;;25.88;50.31
12636;BME280;6383;50.830;7.210;2023-05-21T13:22:55;100554.16;;;25.95;51.38
12636;BME280;6383;50.830;7.210;2023-05-21T13:25:26;100551.31;;;26.06;50.39